Time;durP1;ratioP1;P1;durP2;ratioP2;P2;SDS_P1;SDS_P2;PMS_P1;PMS_P2;Temp;Humidity;BMP_temperature;BMP_pressure;BME280_temperature;BME280_humidity;BME280_pressure;Samples;Min_cycle;Max_cycle;Signal;HPM_P1;HPM_P2
2022/08/12 00:44:13;;;;;;;;;;;23.40;31.60;;;21.34;31.78;101815.06;12254153;19;19927;-88
2022/08/12 00:48:15;;;;;;;;;;;23.30;31.50;;;20.93;31.70;101770.69;12255729;19;20327;-88
2022/08/12 00:52:18;;;;;;;;;;;23.20;31.70;;;21.11;31.54;101827.59;12250494;19;19918;-88
2022/08/12 00:56:21;;;;;;;;;;;23.20;31.80;;;20.98;31.63;101832.22;12251451;19;19970;-88
2022/08/12 01:00:24;;;;;;;;;;;23.00;32.20;;;20.28;31.75;101738.75;12251199;19;19933;-88
2022/08/12 01:13:08;;;;;;;;;;;22.60;32.20;;;20.60;32.15;101820.25;12251415;19;19928;-88
2022/08/12 01:17:10;;;;;;;;;;;22.50;32.00;;;20.47;32.38;101815.06;12252026;19;19919;-88
2022/08/12 01:21:29;;;;;;;;;;;22.40;32.10;;;20.38;32.18;101812.28;12249147;19;19911;-88
2022/08/12 01:25:33;;;;;;;;;;;22.40;32.20;;;20.41;32.16;101833.25;12249275;19;20220;-88
2022/08/12 01:29:41;;;;;;;;;;;22.30;32.20;;;20.38;32.18;101822.91;12249811;19;19923;-88
2022/08/12 01:34:04;;;;;;;;;;;22.30;32.20;;;20.51;32.45;101839.53;12252266;19;19915;-88
2022/08/12 01:38:07;;;;;;;;;;;22.30;32.40;;;20.47;32.24;101838.09;12253552;19;20321;-88
2022/08/12 01:42:09;;;;;;;;;;;22.20;32.40;;;20.36;32.60;101833.66;12245090;19;20340;-88
2022/08/12 01:46:36;;;;;;;;;;;22.20;32.30;;;20.23;32.64;101828.44;12251439;19;19918;-88
2022/08/12 01:51:03;;;;;;;;;;;22.20;32.40;;;20.28;32.75;101842.19;12249525;19;19919;-88
2022/08/12 01:55:06;;;;;;;;;;;22.10;32.50;;;20.22;32.82;101837.34;12249798;19;20000;-88
2022/08/12 02:13:09;;;;;;;;;;;22.00;32.70;;;20.06;33.13;101824.47;12249428;19;20371;-88
2022/08/12 02:17:59;;;;;;;;;;;22.00;32.80;;;19.98;32.96;101818.06;12261820;19;20323;-89
2022/08/12 02:22:27;;;;;;;;;;;21.90;32.80;;;20.05;33.09;101837.84;12256784;19;19915;-89
2022/08/12 02:26:31;;;;;;;;;;;21.90;32.80;;;19.87;32.93;101814.47;12261908;19;19919;-88
2022/08/12 02:30:36;;;;;;;;;;;21.80;32.90;;;19.76;32.83;101795.00;12257604;19;19919;-88
2022/08/12 02:34:38;;;;;;;;;;;21.90;32.90;;;19.83;33.36;101823.59;12260980;19;19952;-88
2022/08/12 02:38:42;;;;;;;;;;;21.70;33.00;;;19.57;33.24;101783.13;12260866;19;19915;-88
2022/08/12 02:42:58;;;;;;;;;;;21.70;33.00;;;19.92;33.09;101829.97;12255856;19;19919;-88
2022/08/12 02:47:03;;;;;;;;;;;21.70;33.00;;;19.82;33.53;101813.97;12256726;19;19923;-88
2022/08/12 02:51:08;;;;;;;;;;;21.80;33.10;;;19.69;33.17;101797.31;12255249;19;19915;-88
2022/08/12 02:55:17;;;;;;;;;;;21.70;33.10;;;19.76;33.29;101809.09;12257669;19;19923;-88
2022/08/12 02:59:25;;;;;;;;;;;21.70;33.10;;;19.81;33.40;101814.91;12258635;19;19946;-88
2022/08/12 03:03:32;;;;;;;;;;;21.60;33.10;;;19.77;33.60;101815.28;12256084;19;20329;-89
2022/08/12 03:07:43;;;;;;;;;;;21.60;33.10;;;19.78;33.38;101828.41;12254957;19;19923;-88
2022/08/12 03:12:03;;;;;;;;;;;21.60;33.10;;;19.36;33.61;101764.44;12254135;19;19919;-88
2022/08/12 03:16:04;;;;;;;;;;;21.60;33.10;;;19.60;33.31;101817.34;12254766;19;19914;-88
2022/08/12 03:20:08;;;;;;;;;;;21.60;33.10;;;19.55;33.65;101811.59;12251661;19;19955;-88
2022/08/12 03:24:14;;;;;;;;;;;21.50;33.20;;;19.53;33.97;101826.75;12251829;19;19932;-88
2022/08/12 03:28:49;;;;;;;;;;;21.50;33.30;;;19.40;34.08;101805.63;12256670;19;19922;-88
2022/08/12 03:32:40;;;;;;;;;;;21.40;33.30;;;19.09;34.06;101767.38;12250993;19;19923;-88
2022/08/12 03:36:41;;;;;;;;;;;21.60;33.40;;;19.27;33.91;101815.44;12256387;19;19935;-88
2022/08/12 04:03:00;;;;;;;;;;;21.10;33.50;;;19.15;34.14;101842.84;12251592;19;19919;-88
2022/08/12 04:07:06;;;;;;;;;;;21.00;33.60;;;19.05;34.23;101837.38;12253161;19;19914;-88
2022/08/12 04:15:30;;;;;;;;;;;20.90;33.50;;;18.89;34.29;101828.88;12253028;19;19911;-88
2022/08/12 04:19:32;;;;;;;;;;;20.90;33.60;;;18.88;34.41;101835.97;12253421;19;19919;-88
2022/08/12 04:23:34;;;;;;;;;;;20.80;33.60;;;18.48;34.53;101780.59;12250384;19;19918;-88
2022/08/12 04:27:35;;;;;;;;;;;20.90;33.60;;;18.64;34.46;101824.47;12251887;19;19919;-88
2022/08/12 04:31:39;;;;;;;;;;;20.70;33.60;;;18.48;34.45;101806.19;12249673;19;20221;-88
2022/08/12 04:35:40;;;;;;;;;;;20.70;33.70;;;18.63;34.31;101841.28;12247932;19;19917;-88
2022/08/12 04:39:44;;;;;;;;;;;20.60;33.70;;;18.35;34.53;101800.94;12248175;19;19923;-88
2022/08/12 04:43:46;;;;;;;;;;;20.60;33.80;;;18.52;34.64;101840.28;12248104;19;20320;-88
2022/08/12 04:47:48;;;;;;;;;;;20.60;33.80;;;18.50;34.76;101843.97;12249634;19;19915;-89
2022/08/12 04:51:50;;;;;;;;;;;20.60;33.80;;;18.42;34.86;101833.09;12245517;19;19919;-88
2022/08/12 04:55:52;;;;;;;;;;;20.50;33.90;;;18.42;34.94;101836.59;12247311;19;19914;-88
2022/08/12 04:59:54;;;;;;;;;;;20.40;34.00;;;18.35;34.93;101836.16;12246558;19;20028;-88
2022/08/12 05:03:56;;;;;;;;;;;20.40;34.00;;;18.43;34.70;101843.56;12246419;19;19954;-88
2022/08/12 05:07:58;;;;;;;;;;;20.30;34.00;;;18.39;34.92;101833.28;12247779;19;19911;-88
2022/08/12 05:11:59;;;;;;;;;;;20.40;34.20;;;18.08;34.92;101780.75;12244438;19;19927;-89
2022/08/12 05:16:01;;;;;;;;;;;20.40;34.30;;;18.41;34.99;101837.50;12246882;19;19930;-88
2022/08/12 05:20:03;;;;;;;;;;;20.40;34.20;;;17.91;34.95;101744.94;12241741;19;20244;-88
2022/08/12 05:24:05;;;;;;;;;;;20.40;34.30;;;18.47;34.98;101829.16;12242272;19;19915;-88
2022/08/12 05:28:07;;;;;;;;;;;20.40;34.40;;;18.55;35.00;101825.94;12242391;19;19922;-89
2022/08/12 05:32:10;;;;;;;;;;;20.80;34.60;;;18.27;35.11;101764.44;12246586;19;19915;-89
2022/08/12 05:36:14;;;;;;;;;;;20.70;34.70;;;18.81;35.19;101840.00;12247544;19;19918;-88
2022/08/12 05:40:16;;;;;;;;;;;20.60;34.60;;;18.83;35.12;101830.16;12247153;19;19911;-89
2022/08/12 05:44:18;;;;;;;;;;;20.70;34.70;;;18.39;35.44;101743.38;12245316;19;19947;-89
2022/08/12 05:48:20;;;;;;;;;;;20.80;34.70;;;18.80;35.45;101803.91;12243890;19;19921;-88
2022/08/12 05:52:22;;;;;;;;;;;20.90;35.10;;;18.80;35.60;101790.69;12243697;19;19918;-88
2022/08/12 05:56:27;;;;;;;;;;;20.90;35.00;;;19.09;35.28;101803.56;12246625;19;19945;-88
2022/08/12 06:00:30;;;;;;;;;;;21.10;35.00;;;19.50;35.40;101840.22;12243389;19;19975;-88
2022/08/12 06:04:32;;;;;;;;;;;21.50;35.30;;;19.55;35.86;101797.47;12241484;19;19915;-88
2022/08/12 06:08:34;;;;;;;;;;;21.40;35.60;;;19.88;35.54;101797.56;12243064;19;19918;-90
2022/08/12 06:12:36;;;;;;;;;;;21.70;35.60;;;20.56;35.74;101853.31;12239960;19;19927;-90
2022/08/12 06:16:38;;;;;;;;;;;22.30;35.80;;;20.52;35.61;101777.50;12242663;19;20530;-91
2022/08/12 06:20:39;;;;;;;;;;;22.60;35.60;;;21.32;35.72;101856.03;12239443;19;20329;-89
2022/08/12 06:24:41;;;;;;;;;;;22.70;35.50;;;21.36;35.43;101810.47;12242381;19;19915;-88
2022/08/12 06:28:43;;;;;;;;;;;23.10;35.10;;;21.86;35.41;101847.91;12245562;19;20287;-86
2022/08/12 06:32:46;;;;;;;;;;;23.40;35.10;;;21.83;35.27;101795.00;12243327;19;19975;-86
2022/08/12 06:36:48;;;;;;;;;;;23.70;35.00;;;22.03;35.43;101800.41;12245219;19;19952;-86
2022/08/12 06:45:20;;;;;;;;;;;24.20;34.40;;;22.88;35.39;101863.06;12243157;19;19923;-86
2022/08/12 06:49:21;;;;;;;;;;;24.40;34.40;;;23.02;35.03;101845.88;12246912;19;19914;-86
2022/08/12 06:53:25;;;;;;;;;;;24.70;34.40;;;23.30;35.10;101863.69;12245840;19;19955;-86
2022/08/12 06:57:26;;;;;;;;;;;24.90;34.40;;;23.41;35.41;101860.91;12245175;19;19935;-85
2022/08/12 07:01:30;;;;;;;;;;;25.10;34.10;;;23.61;35.17;101853.72;12246471;19;19930;-86
2022/08/12 07:05:31;;;;;;;;;;;25.40;34.20;;;23.69;35.13;101845.00;12252308;19;20326;-86
2022/08/12 07:09:32;;;;;;;;;;;25.40;34.00;;;23.87;35.06;101849.63;12253853;19;19918;-85
2022/08/12 07:13:43;;;;;;;;;;;25.60;34.10;;;24.01;35.22;101852.69;12255756;19;19957;-86
2022/08/12 07:17:44;;;;;;;;;;;25.70;34.00;;;24.15;35.21;101851.38;12253875;19;19998;-86
2022/08/12 07:21:46;;;;;;;;;;;25.90;34.00;;;24.33;34.80;101851.47;12250675;19;19950;-86
2022/08/12 07:25:47;;;;;;;;;;;25.90;33.90;;;24.53;35.16;101862.91;12250852;19;19925;-86
2022/08/12 07:29:49;;;;;;;;;;;26.10;33.80;;;24.49;34.81;101821.44;12250603;19;19929;-86
2022/08/12 07:33:51;;;;;;;;;;;26.30;33.90;;;25.00;35.14;101878.78;12254473;19;19924;-84
2022/08/12 07:37:53;;;;;;;;;;;26.50;33.90;;;25.25;34.71;101868.38;12252160;19;19919;-85
2022/08/12 07:41:55;;;;;;;;;;;26.70;34.00;;;25.52;35.01;101870.09;12247538;19;19990;-85
2022/08/12 07:45:57;;;;;;;;;;;27.00;34.00;;;25.67;34.64;101849.00;12251025;19;19923;-86
2022/08/12 07:50:00;;;;;;;;;;;27.30;33.90;;;26.11;34.68;101878.41;12252534;19;19926;-86
2022/08/12 07:54:08;;;;;;;;;;;27.50;33.80;;;26.31;34.66;101876.38;12255256;19;19918;-86
2022/08/12 07:58:10;;;;;;;;;;;27.70;33.70;;;26.55;34.41;101884.53;12254335;19;19966;-85
2022/08/12 08:02:11;;;;;;;;;;;27.90;33.60;;;26.71;34.61;101867.69;12246976;19;19989;-85
2022/08/12 08:06:15;;;;;;;;;;;28.10;33.50;;;26.93;34.45;101861.69;12248433;19;19939;-86
2022/08/12 08:10:16;;;;;;;;;;;28.30;33.40;;;26.78;34.49;101792.81;12248619;19;19911;-86
2022/08/12 08:14:19;;;;;;;;;;;28.60;33.40;;;27.41;34.04;101850.38;12249922;19;19921;-87
2022/08/12 08:18:22;;;;;;;;;;;28.90;33.20;;;27.68;34.09;101844.66;12251190;19;19926;-86
2022/08/12 08:22:26;;;;;;;;;;;29.10;33.30;;;27.97;33.69;101851.34;12246750;19;20262;-86
2022/08/12 08:26:28;;;;;;;;;;;29.50;33.10;;;28.02;33.99;101835.53;12251204;19;19935;-86
2022/08/12 08:30:30;;;;;;;;;;;29.50;32.90;;;28.34;33.65;101850.72;12249953;19;20346;-86
2022/08/12 08:34:34;;;;;;;;;;;29.70;32.90;;;28.59;33.57;101858.69;12260789;19;20342;-86
2022/08/12 08:38:36;;;;;;;;;;;30.00;32.80;;;28.48;33.45;101814.22;12259513;19;19994;-86
2022/08/12 08:42:39;;;;;;;;;;;30.10;32.70;;;28.87;33.34;101845.59;12256056;19;19915;-87
2022/08/12 08:46:42;;;;;;;;;;;30.30;32.70;;;29.12;33.35;101857.06;12262548;19;19914;-86
2022/08/12 08:50:44;;;;;;;;;;;30.50;32.90;;;29.18;33.31;101859.03;12254003;19;19922;-86
2022/08/12 08:54:47;;;;;;;;;;;30.60;32.40;;;29.23;32.80;101834.28;12257645;19;19911;-86
2022/08/12 08:58:49;;;;;;;;;;;30.80;32.20;;;29.33;32.49;101845.63;12256386;19;20329;-87
2022/08/12 09:02:50;;;;;;;;;;;31.10;32.30;;;29.42;32.76;101839.16;12247042;19;19937;-85
2022/08/12 09:06:55;;;;;;;;;;;30.90;32.10;;;29.50;32.60;101833.69;12256550;19;20526;-86
2022/08/12 09:13:26;;;;;;;;;;;31.00;32.00;;;29.64;32.68;101831.25;12252584;19;19921;-86
2022/08/12 09:15:18;;;;;;;;;;;31.20;31.60;;;29.70;32.29;101811.66;12251531;19;19914;-86
2022/08/12 09:19:19;;;;;;;;;;;31.20;31.90;;;29.93;32.17;101835.81;12252836;19;19926;-86
2022/08/12 09:23:21;;;;;;;;;;;31.40;31.20;;;29.99;32.23;101833.19;12251600;19;19923;-86
2022/08/12 09:27:22;;;;;;;;;;;31.50;31.60;;;30.06;31.83;101819.84;12251450;19;20362;-86
2022/08/12 09:31:24;;;;;;;;;;;31.60;31.80;;;30.24;31.90;101819.47;12247961;19;20351;-86
2022/08/12 09:35:32;;;;;;;;;;;31.70;32.00;;;30.04;31.94;101761.78;12252093;19;19910;-86
2022/08/12 09:39:33;;;;;;;;;;;31.90;31.90;;;30.57;31.59;101822.56;12251967;19;19922;-86
2022/08/12 09:47:55;;;;;;;;;;;32.10;30.80;;;30.61;31.09;101817.63;12250493;19;19915;-87
2022/08/12 09:51:57;;;;;;;;;;;32.10;31.20;;;30.65;31.34;101802.75;12246636;19;19919;-86
2022/08/12 09:55:58;;;;;;;;;;;32.20;31.20;;;30.78;31.23;101802.84;12248194;19;20214;-86
2022/08/12 10:00:01;;;;;;;;;;;32.20;31.30;;;30.74;31.20;101785.41;12247547;19;19910;-86
2022/08/12 10:04:08;;;;;;;;;;;32.30;30.90;;;30.94;31.51;101790.19;12250056;19;20411;-86
2022/08/12 10:08:12;;;;;;;;;;;32.40;31.10;;;30.91;31.13;101785.19;12254958;19;19922;-86
2022/08/12 10:16:35;;;;;;;;;;;32.50;30.80;;;30.97;31.28;101782.53;12252589;19;19915;-86
2022/08/12 10:20:37;;;;;;;;;;;32.50;31.00;;;31.03;30.78;101759.34;12248686;19;19914;-86
2022/08/12 10:24:39;;;;;;;;;;;32.50;30.50;;;31.14;30.77;101761.53;12249099;19;19911;-86
2022/08/12 10:33:00;;;;;;;;;;;32.70;30.80;;;31.37;30.77;101769.38;12246658;19;19922;-87
2022/08/12 10:37:03;;;;;;;;;;;32.80;30.90;;;31.48;30.17;101773.41;12261432;19;19925;-86
2022/08/12 10:45:25;;;;;;;;;;;32.90;30.80;;;31.52;30.12;101756.63;12262869;19;19950;-87
2022/08/12 10:49:27;;;;;;;;;;;33.00;30.90;;;31.49;30.17;101751.63;12265956;19;19923;-85
2022/08/12 10:53:30;;;;;;;;;;;33.00;30.00;;;31.48;30.27;101749.09;12266381;19;19911;-86
2022/08/12 10:57:32;;;;;;;;;;;33.00;30.40;;;31.40;29.80;101722.25;12265225;19;19931;-85
2022/08/12 11:01:33;;;;;;;;;;;33.00;30.80;;;31.48;29.65;101754.50;12264579;19;20233;-84
2022/08/12 11:05:35;;;;;;;;;;;33.00;30.60;;;31.23;29.96;101733.34;12261979;19;19919;-86
2022/08/12 11:09:37;;;;;;;;;;;33.00;30.20;;;31.33;29.99;101745.69;12262440;19;19929;-86
2022/08/12 11:13:40;;;;;;;;;;;32.90;30.70;;;31.36;29.99;101743.41;12263140;19;19914;-86
2022/08/12 11:17:41;;;;;;;;;;;32.90;30.40;;;31.46;29.58;101729.56;12264008;19;19922;-86
2022/08/12 11:21:43;;;;;;;;;;;32.90;30.50;;;31.64;29.93;101734.44;12251235;19;19981;-87
2022/08/12 11:25:45;;;;;;;;;;;33.00;30.20;;;31.73;29.66;101720.59;12246034;19;19925;-87
2022/08/12 11:29:46;;;;;;;;;;;33.10;30.60;;;31.95;29.56;101712.41;12249560;19;19910;-87
2022/08/12 11:33:48;;;;;;;;;;;33.30;30.00;;;31.82;29.33;101693.41;12250188;19;19914;-87
2022/08/12 11:37:50;;;;;;;;;;;33.40;30.00;;;31.99;29.11;101719.06;12255116;19;19978;-87
2022/08/12 11:41:51;;;;;;;;;;;33.50;30.40;;;32.00;29.32;101715.34;12252524;19;19998;-86
2022/08/12 11:45:53;;;;;;;;;;;33.50;30.20;;;32.00;29.51;101709.06;12248982;19;19923;-87
2022/08/12 11:49:55;;;;;;;;;;;33.50;30.10;;;32.01;29.24;101711.59;12255497;19;19919;-86
2022/08/12 11:53:56;;;;;;;;;;;33.60;30.40;;;32.05;28.90;101699.31;12255649;19;19943;-86
2022/08/12 11:57:58;;;;;;;;;;;33.50;30.10;;;32.09;29.04;101684.38;12254229;19;20336;-86
2022/08/12 12:01:59;;;;;;;;;;;33.60;30.10;;;32.11;28.92;101684.19;12251245;19;19922;-86
2022/08/12 12:06:00;;;;;;;;;;;33.60;29.90;;;32.10;28.90;101688.72;12248968;19;19947;-86
2022/08/12 12:10:03;;;;;;;;;;;33.60;30.00;;;31.76;29.19;101646.41;12253267;19;19914;-86
2022/08/12 12:14:04;;;;;;;;;;;33.60;30.00;;;32.07;28.75;101694.53;12251892;19;20400;-86
2022/08/12 12:18:17;;;;;;;;;;;33.60;30.00;;;32.12;29.09;101693.94;12251354;19;19922;-86
2022/08/12 12:22:20;;;;;;;;;;;33.60;30.00;;;32.17;28.94;101696.88;12247051;19;19936;-86
2022/08/12 12:26:22;;;;;;;;;;;33.60;29.40;;;32.20;28.85;101682.13;12235526;19;19911;-86
2022/08/12 12:30:23;;;;;;;;;;;33.70;30.00;;;32.30;28.84;101682.56;12243631;19;19925;-86
2022/08/12 12:34:25;;;;;;;;;;;33.80;30.10;;;32.34;28.78;101692.75;12246907;19;19942;-87
2022/08/12 12:38:26;;;;;;;;;;;33.80;30.00;;;32.14;28.71;101646.75;12246513;19;19925;-86
2022/08/12 12:42:28;;;;;;;;;;;33.80;29.70;;;32.35;28.58;101656.56;12241631;19;19951;-86
2022/08/12 12:46:29;;;;;;;;;;;33.90;30.20;;;32.49;28.78;101681.78;12242379;19;19982;-87
2022/08/12 12:50:32;;;;;;;;;;;33.90;29.80;;;32.55;28.29;101683.66;12244441;19;19918;-87
2022/08/12 12:54:34;;;;;;;;;;;33.90;29.50;;;32.55;28.00;101690.94;12247645;19;19933;-87
2022/08/12 12:58:36;;;;;;;;;;;33.90;29.90;;;32.48;28.39;101668.44;12246451;19;19918;-87
2022/08/12 13:02:39;;;;;;;;;;;34.00;29.70;;;32.49;28.44;101654.72;12247008;19;20384;-84
2022/08/12 13:06:40;;;;;;;;;;;34.00;29.80;;;32.67;28.12;101677.59;12251499;19;20342;-84
2022/08/12 13:10:42;;;;;;;;;;;34.10;29.90;;;32.65;28.35;101667.00;12247719;19;19918;-84
2022/08/12 13:14:43;;;;;;;;;;;34.10;29.80;;;32.66;28.00;101675.97;12250697;19;19929;-84
2022/08/12 13:18:49;;;;;;;;;;;34.10;30.00;;;32.54;27.74;101671.19;12242052;19;20307;-84
2022/08/12 13:22:51;;;;;;;;;;;34.10;30.00;;;32.25;27.94;101658.84;12243594;19;19917;-84
2022/08/12 13:26:52;;;;;;;;;;;34.00;29.70;;;32.39;27.97;101673.19;12246299;19;19926;-84
2022/08/12 13:30:56;;;;;;;;;;;33.90;29.50;;;32.35;27.62;101666.53;12241619;19;19941;-85
2022/08/12 13:34:58;;;;;;;;;;;33.80;29.40;;;32.37;27.83;101675.28;12245534;19;20007;-83
2022/08/12 13:38:59;;;;;;;;;;;33.80;29.90;;;32.32;27.58;101665.06;12242588;19;20271;-84
2022/08/12 13:43:05;;;;;;;;;;;33.80;29.30;;;32.29;27.91;101651.97;12239632;19;19935;-84
2022/08/12 13:47:06;;;;;;;;;;;33.70;29.30;;;32.39;27.67;101660.50;12239009;19;19925;-84
2022/08/12 13:51:08;;;;;;;;;;;33.80;29.70;;;32.46;27.86;101649.72;12243661;19;19920;-84
2022/08/12 13:55:09;;;;;;;;;;;33.80;29.70;;;32.51;28.06;101654.50;12244098;19;19919;-84
2022/08/12 13:59:12;;;;;;;;;;;33.80;29.40;;;32.43;27.43;101644.69;12245400;19;19914;-84
2022/08/12 14:03:15;;;;;;;;;;;33.80;29.70;;;32.37;27.58;101649.06;12242474;19;19931;-84
2022/08/12 14:07:16;;;;;;;;;;;33.80;29.50;;;32.24;28.11;101613.91;12240846;19;19915;-84
2022/08/12 14:11:18;;;;;;;;;;;33.80;29.50;;;32.40;27.76;101626.19;12238165;19;19936;-84
2022/08/12 14:15:19;;;;;;;;;;;33.90;29.70;;;32.53;27.55;101633.50;12245839;19;20334;-84
2022/08/12 14:19:21;;;;;;;;;;;33.80;29.20;;;32.48;27.56;101620.59;12247305;19;19910;-84
2022/08/12 14:23:33;;;;;;;;;;;33.90;29.50;;;32.53;27.51;101634.31;12245677;19;19915;-84
2022/08/12 14:27:36;;;;;;;;;;;33.90;29.50;;;32.45;27.77;101634.50;12246440;19;19952;-84
2022/08/12 14:31:37;;;;;;;;;;;33.90;29.40;;;32.22;27.27;101616.00;12241042;19;19955;-84
2022/08/12 14:35:41;;;;;;;;;;;33.90;29.40;;;32.20;27.31;101636.16;12244837;19;19918;-84
2022/08/12 14:39:44;;;;;;;;;;;33.70;29.40;;;32.10;27.38;101631.97;12243880;19;19933;-84
2022/08/12 14:43:47;;;;;;;;;;;33.60;29.40;;;32.00;27.74;101620.75;12247009;19;19923;-84
2022/08/12 14:47:52;;;;;;;;;;;33.60;29.50;;;32.02;27.81;101621.34;12247118;19;19926;-84
2022/08/12 14:51:53;;;;;;;;;;;33.50;29.50;;;32.11;27.72;101598.53;12244791;19;19923;-84
2022/08/12 14:55:56;;;;;;;;;;;33.50;29.50;;;32.17;27.49;101588.75;12249612;19;19923;-85
2022/08/12 15:04:27;;;;;;;;;;;33.60;29.60;;;32.41;27.47;101587.31;12244041;19;19929;-84
2022/08/12 15:08:32;;;;;;;;;;;33.70;29.40;;;32.44;27.46;101578.78;12245976;19;20323;-85
2022/08/12 15:12:33;;;;;;;;;;;33.70;29.40;;;32.49;27.34;101587.13;12237671;19;19910;-85
2022/08/12 15:16:35;;;;;;;;;;;33.80;29.30;;;32.34;27.54;101572.94;12246411;19;19931;-85
2022/08/12 15:20:37;;;;;;;;;;;33.80;29.40;;;32.21;27.46;101552.13;12249104;19;19930;-84
2022/08/12 15:24:38;;;;;;;;;;;33.80;29.40;;;32.36;27.50;101590.63;12256695;19;19926;-86
2022/08/12 15:28:43;;;;;;;;;;;33.80;29.50;;;32.28;27.12;101576.50;12259575;19;19915;-85
2022/08/12 15:32:45;;;;;;;;;;;33.70;29.50;;;32.23;27.24;101576.28;12251600;19;20658;-85
2022/08/12 15:36:47;;;;;;;;;;;33.70;29.40;;;32.17;27.27;101576.06;12253610;19;19991;-85
2022/08/12 15:40:50;;;;;;;;;;;33.60;29.50;;;32.18;27.66;101566.91;12252037;19;19915;-85
2022/08/12 15:44:51;;;;;;;;;;;33.60;29.40;;;32.02;27.49;101529.47;12252813;19;20956;-85
2022/08/12 15:48:53;;;;;;;;;;;33.60;29.40;;;32.12;27.17;101543.41;12253011;19;19918;-85
2022/08/12 15:52:55;;;;;;;;;;;33.60;29.30;;;32.28;27.42;101561.09;12249236;19;19921;-85
2022/08/12 15:56:57;;;;;;;;;;;33.60;29.60;;;31.86;27.33;101498.25;12251998;19;19915;-86
2022/08/12 16:00:58;;;;;;;;;;;33.80;29.30;;;32.17;27.25;101559.00;12248428;19;20353;-86
2022/08/12 16:04:59;;;;;;;;;;;33.60;29.50;;;32.15;27.36;101577.31;12252800;19;19970;-86
2022/08/12 16:09:01;;;;;;;;;;;33.60;29.50;;;32.07;27.61;101567.53;12254497;19;19955;-86
2022/08/12 16:13:11;;;;;;;;;;;33.50;29.40;;;32.03;27.31;101574.41;12250757;19;19915;-86
2022/08/12 16:17:13;;;;;;;;;;;33.50;29.50;;;31.93;27.07;101573.97;12255513;19;19930;-86
2022/08/12 16:21:16;;;;;;;;;;;33.40;29.40;;;31.83;27.38;101565.38;12252288;19;19961;-86
2022/08/12 16:25:19;;;;;;;;;;;33.30;29.50;;;31.71;27.09;101555.19;12255864;19;19910;-86
2022/08/12 16:29:31;;;;;;;;;;;33.30;29.40;;;31.71;27.30;101571.38;12256865;19;19922;-86
2022/08/12 16:33:40;;;;;;;;;;;33.10;29.30;;;31.67;27.42;101567.41;12255495;19;20397;-86
2022/08/12 16:37:45;;;;;;;;;;;33.10;29.30;;;31.48;27.53;101554.69;12253781;19;19915;-86
2022/08/12 16:41:46;;;;;;;;;;;33.00;29.30;;;31.42;27.68;101550.13;12250954;19;19927;-86
2022/08/12 16:45:48;;;;;;;;;;;32.90;29.40;;;31.39;27.54;101545.94;12251394;19;19926;-86
2022/08/12 16:49:49;;;;;;;;;;;32.80;29.40;;;31.36;27.59;101545.50;12253231;19;19915;-86
2022/08/12 16:53:51;;;;;;;;;;;32.80;29.40;;;31.29;27.57;101534.66;12253750;19;19921;-86
2022/08/12 16:57:56;;;;;;;;;;;32.80;29.50;;;31.29;27.32;101524.69;12251083;19;20260;-86
2022/08/12 17:01:58;;;;;;;;;;;32.80;29.50;;;31.27;27.52;101520.53;12255216;19;20002;-86
2022/08/12 17:05:59;;;;;;;;;;;32.80;29.50;;;31.36;27.29;101538.22;12253238;19;19911;-86
2022/08/12 17:10:01;;;;;;;;;;;32.70;29.50;;;30.92;27.63;101463.97;12256222;19;19918;-86
2022/08/12 17:14:03;;;;;;;;;;;32.70;29.50;;;31.34;27.36;101531.38;12256874;19;19923;-86
2022/08/12 17:18:08;;;;;;;;;;;32.70;29.50;;;30.86;27.51;101454.78;12255737;19;19914;-86
2022/08/12 17:22:10;;;;;;;;;;;32.70;29.60;;;31.31;27.42;101527.19;12253933;19;19974;-85
2022/08/12 17:26:12;;;;;;;;;;;32.70;29.60;;;31.22;27.45;101525.72;12255392;19;19917;-86
2022/08/12 17:30:14;;;;;;;;;;;32.60;29.60;;;31.18;27.85;101519.06;12258305;19;19906;-86
2022/08/12 17:38:37;;;;;;;;;;;32.60;29.60;;;30.96;27.78;101510.25;12258619;19;19923;-86
2022/08/12 17:42:42;;;;;;;;;;;32.50;29.60;;;30.91;27.54;101510.00;12251508;19;19923;-86
2022/08/12 17:46:44;;;;;;;;;;;32.40;29.60;;;30.79;28.03;101502.47;12252055;19;20014;-86
2022/08/12 17:50:48;;;;;;;;;;;32.40;29.60;;;30.66;28.06;101491.59;12254487;19;19923;-86
2022/08/12 17:54:51;;;;;;;;;;;32.30;29.70;;;30.75;27.71;101506.56;12256455;19;19947;-86
2022/08/12 17:58:53;;;;;;;;;;;32.20;29.70;;;30.69;27.67;101503.84;12254286;19;19926;-86
2022/08/12 18:02:58;;;;;;;;;;;32.20;29.80;;;30.68;27.79;101500.31;12251766;19;19918;-86
2022/08/12 18:07:00;;;;;;;;;;;32.10;29.70;;;30.60;27.70;101509.41;12254707;19;19926;-86
2022/08/12 18:15:22;;;;;;;;;;;32.10;29.80;;;30.51;28.08;101502.47;12255159;19;19959;-85
2022/08/12 18:19:23;;;;;;;;;;;32.00;29.80;;;30.49;28.02;101511.78;12255547;19;19941;-85
2022/08/12 18:23:25;;;;;;;;;;;32.00;29.80;;;30.50;28.12;101518.88;12256305;19;19911;-85
2022/08/12 18:27:31;;;;;;;;;;;31.90;29.90;;;30.40;28.17;101498.47;12256686;19;19915;-85
2022/08/12 18:31:34;;;;;;;;;;;31.90;30.00;;;30.45;28.05;101521.31;12252210;19;19928;-86
2022/08/12 18:35:36;;;;;;;;;;;31.90;30.00;;;30.24;28.28;101497.94;12254466;19;19914;-86
2022/08/12 18:44:04;;;;;;;;;;;31.70;30.00;;;30.25;28.34;101526.56;12254476;19;19939;-85
2022/08/12 18:48:08;;;;;;;;;;;31.80;30.00;;;30.13;28.39;101520.84;12254279;19;19915;-88
2022/08/12 18:52:10;;;;;;;;;;;31.60;30.00;;;29.98;28.46;101527.13;12249043;19;19918;-88
2022/08/12 18:56:12;;;;;;;;;;;31.60;30.00;;;29.91;28.46;101538.88;12259111;19;19943;-88
2022/08/12 19:00:18;;;;;;;;;;;31.40;30.00;;;29.79;28.09;101533.19;12262200;19;19919;-88
2022/08/12 19:04:21;;;;;;;;;;;31.40;30.00;;;29.72;28.54;101543.88;12263298;19;19915;-88
2022/08/12 19:08:28;;;;;;;;;;;31.30;30.00;;;29.54;28.44;101528.13;12264778;19;19926;-88
2022/08/12 19:16:51;;;;;;;;;;;31.10;30.00;;;29.25;28.66;101531.72;12264221;19;19919;-88
2022/08/12 19:20:53;;;;;;;;;;;30.90;30.00;;;29.24;28.72;101551.56;12252336;19;19934;-88
2022/08/12 19:29:19;;;;;;;;;;;30.70;30.00;;;28.97;28.84;101538.75;12257717;19;20376;-89
2022/08/12 19:33:23;;;;;;;;;;;30.60;30.00;;;28.92;29.13;101542.00;12260978;19;19986;-89
2022/08/12 19:37:27;;;;;;;;;;;30.50;30.10;;;28.72;28.80;101530.13;12259408;19;19919;-89
2022/08/12 19:41:29;;;;;;;;;;;30.40;30.10;;;28.59;29.36;101520.00;12257283;19;19922;-89
2022/08/12 19:45:32;;;;;;;;;;;30.30;30.20;;;28.71;29.07;101548.13;12256434;19;19914;-89
2022/08/12 19:49:34;;;;;;;;;;;30.30;30.40;;;28.61;29.07;101534.13;12257452;19;19926;-89
2022/08/12 19:53:36;;;;;;;;;;;30.20;30.40;;;28.18;29.22;101483.59;12258601;19;19922;-88
2022/08/12 19:57:37;;;;;;;;;;;30.10;30.30;;;28.01;29.15;101482.91;12258674;19;19927;-89
2022/08/12 20:01:38;;;;;;;;;;;30.00;30.30;;;28.22;29.54;101538.66;12255898;19;19914;-88
2022/08/12 20:05:44;;;;;;;;;;;29.90;30.40;;;28.11;29.31;101535.53;12254701;19;19926;-88
2022/08/12 20:09:47;;;;;;;;;;;29.80;30.40;;;27.70;29.40;101474.91;12256341;19;19918;-89
2022/08/12 20:13:52;;;;;;;;;;;29.70;30.50;;;27.53;29.47;101459.94;12255815;19;20317;-89
2022/08/12 20:17:55;;;;;;;;;;;29.70;30.50;;;27.85;29.33;101531.38;12258426;19;19919;-89
2022/08/12 20:21:57;;;;;;;;;;;29.60;30.60;;;27.94;29.58;101559.00;12254301;19;19915;-89
2022/08/12 20:25:59;;;;;;;;;;;29.50;30.60;;;27.46;29.27;101485.81;12253826;19;19918;-89
2022/08/12 20:30:01;;;;;;;;;;;29.40;30.70;;;27.62;29.90;101528.63;12254312;19;19911;-89
2022/08/12 20:34:03;;;;;;;;;;;29.40;30.80;;;27.71;29.34;101538.31;12254012;19;19911;-90